Flight Track Log - Related Links

Times and Time Zones

All times are in EDT time to prevent confusion due to time zone crossing. See the DCM6791 flight status page for this flight to view local times or setup timezone preferences in your user account.

Time Position Orientation Groundspeed Altitude Reporting Facility
EDT Latitude Longitude Course Direction KTS MPH feet Rate Location/Type
Wed 09:17:08 AM 41.9358 -91.6781 North 110 127 2,900  Level Chicago Center
Wed 09:18:10 AM 41.9747 -91.6792 359° North 124 143 3,700 532 Climbing Chicago Center
Wed 09:19:12 AM 42.0175 -91.6819 357° North 141 162 4,000 145 Climbing Chicago Center
Wed 09:20:14 AM 42.0664 -91.6786 North 158 182 4,000 48 Level Chicago Center
Wed 09:21:00 AM 42.1833 -91.7000 North  Level FlightAware Approximate
Wed 09:21:16 AM 42.1194 -91.6808 358° North 178 205 4,100  Level Chicago Center
Wed 09:22:00 AM 42.2333 -91.7000 North  Level FlightAware Approximate
Wed 09:22:18 AM 42.1797 -91.6822 359° North 183 211 4,000  Level Chicago Center
Wed 09:23:20 AM 42.2286 -91.6831 359° North 181 208 4,000 48 Level Chicago Center
Wed 09:24:22 AM 42.2808 -91.6831 360° North 183 211 4,100  Climbing Chicago Center
Wed 09:25:23 AM 42.3339 -91.6847 359° North 188 216 4,000 -48 Descending Chicago Center
Wed 09:26:26 AM 42.3850 -91.6856 359° North 188 216 4,000  Level Chicago Center
Wed 09:27:27 AM 42.4472 -91.6867 359° North 187 215 4,000  Level Chicago Center
Wed 09:28:29 AM 42.5006 -91.6872 360° North 190 219 4,000  Level Chicago Center
Wed 09:29:31 AM 42.5539 -91.6878 360° North 192 221 4,000  Level Chicago Center
Wed 09:30:33 AM 42.6067 -91.6892 359° North 191 220 4,000  Level Chicago Center
Wed 09:31:35 AM 42.6611 -91.6894 360° North 193 222 4,000  Level Chicago Center
Wed 09:32:37 AM 42.7167 -91.6894 360° North 196 226 4,000  Level Chicago Center
Wed 09:33:39 AM 42.7731 -91.6906 359° North 198 228 4,000  Level Chicago Center
Wed 09:34:41 AM 42.8397 -91.6925 359° North 198 228 4,000  Level Chicago Center
Wed 09:35:43 AM 42.8953 -91.6939 359° North 199 229 4,000  Level Chicago Center
Wed 09:36:45 AM 42.9508 -91.6947 359° North 200 230 4,000  Level Chicago Center
Wed 09:37:47 AM 43.0067 -91.6967 359° North 201 231 4,000  Level Chicago Center
Wed 09:38:49 AM 43.0622 -91.6978 359° North 201 231 4,000 -48 Level Chicago Center
Wed 09:39:52 AM 43.1172 -91.6989 359° North 200 230 3,900 76 Descending Chicago Center
Wed 09:40:08 AM 43.1397 -91.6972 North 200 230 4,100 154 Climbing Minneapolis Center
Wed 09:41:10 AM 43.1944 -91.6978 360° North 199 229 4,100  Level Minneapolis Center
Wed 09:42:11 AM 43.2483 -91.6992 359° North 197 227 4,100 -49 Level Minneapolis Center
Wed 09:43:13 AM 43.3097 -91.6992 360° North 197 227 4,000 -49 Descending Minneapolis Center
Wed 09:44:14 AM 43.3667 -91.7000 359° North 193 222 4,000  Level Minneapolis Center
Wed 09:45:16 AM 43.4200 -91.7011 359° North 193 222 4,000  Level Minneapolis Center
Wed 09:46:17 AM 43.4753 -91.7022 359° North 193 222 4,000 -35 Level Minneapolis Center
Wed 09:48:08 AM 43.5678 -91.7086 357° North 193 222 3,900 -243 Descending Chicago Center
Wed 09:49:10 AM 43.6219 -91.7083 360° North 194 223 3,300 -581 Descending Chicago Center

Login

Don't have an account? Register now (free) for customized features, flight alerts, and more!